createdAt,value
2024-04-17T05:01:31.878Z,0.50
2024-04-17T05:02:08.417Z,0.50
2024-04-17T05:03:08.272Z,0.50
2024-04-17T05:04:08.280Z,0.50
2024-04-17T05:05:08.342Z,0.50
2024-04-17T05:06:08.266Z,0.50
2024-04-17T05:07:08.292Z,0.43
2024-04-17T05:08:08.336Z,0.34
2024-04-17T05:09:08.309Z,0.29
2024-04-17T05:10:08.248Z,0.26
2024-04-17T05:11:08.321Z,0.24
2024-04-17T05:12:08.291Z,0.23
2024-04-17T05:13:08.280Z,0.23
2024-04-17T05:14:08.256Z,0.23
2024-04-17T05:15:08.302Z,0.24
2024-04-17T05:16:10.512Z,0.26
2024-04-17T05:17:08.423Z,0.23
2024-04-17T05:18:08.465Z,0.20
2024-04-17T05:19:08.317Z,0.18
2024-04-17T05:20:08.298Z,0.16
2024-04-17T05:21:08.323Z,0.16
2024-04-17T05:22:08.309Z,0.16
2024-04-17T05:23:08.324Z,0.18
2024-04-17T05:24:08.346Z,0.20
2024-04-17T05:25:08.298Z,0.22
2024-04-17T05:26:08.314Z,0.25
2024-04-17T05:27:08.321Z,0.28
2024-04-17T05:28:08.317Z,0.31
2024-04-17T05:29:08.364Z,0.34
2024-04-17T05:30:08.331Z,0.38
2024-04-17T05:31:08.348Z,0.45
2024-04-17T05:32:08.344Z,0.51
2024-04-17T05:33:08.371Z,0.50
2024-04-17T05:34:08.342Z,0.50
2024-04-17T05:35:08.323Z,0.51
2024-04-17T05:36:08.331Z,0.51
2024-04-17T05:37:08.349Z,0.50
2024-04-17T05:38:11.236Z,0.50
2024-04-17T05:39:08.336Z,0.50
2024-04-17T05:40:08.361Z,0.50
2024-04-17T05:41:08.378Z,0.50
2024-04-17T05:42:08.359Z,0.51
2024-04-17T05:43:08.372Z,0.50
2024-04-17T05:44:08.378Z,0.51
2024-04-17T05:45:08.353Z,0.53
2024-04-17T05:46:08.356Z,0.54
2024-04-17T05:47:08.446Z,0.53
2024-04-17T05:48:08.492Z,0.50
2024-04-17T05:49:08.363Z,0.51
2024-04-17T05:50:09.329Z,0.51
2024-04-17T05:51:08.339Z,0.51
2024-04-17T05:52:08.383Z,0.50
2024-04-17T05:53:08.395Z,0.50
2024-04-17T05:54:08.366Z,0.50
2024-04-17T05:55:08.397Z,0.51
2024-04-17T05:56:08.398Z,0.58
2024-04-17T05:57:08.382Z,0.67
2024-04-17T05:58:08.467Z,0.69
2024-04-17T05:59:08.375Z,0.62
2024-04-17T06:00:08.375Z,0.69
2024-04-17T06:01:08.397Z,0.73
2024-04-17T06:02:08.371Z,0.71
2024-04-17T06:03:08.524Z,0.68
2024-04-17T06:04:08.369Z,0.66
2024-04-17T06:05:08.396Z,0.59
2024-04-17T06:06:08.384Z,0.59
2024-04-17T06:07:08.446Z,0.52
2024-04-17T06:08:08.999Z,0.50
2024-04-17T06:09:08.676Z,0.50
2024-04-17T06:10:08.741Z,0.52
2024-04-17T06:11:09.151Z,0.51
2024-04-17T06:12:08.941Z,0.51
2024-04-17T06:13:09.117Z,0.50
2024-04-17T06:14:09.750Z,0.51
2024-04-17T06:15:09.273Z,0.51
2024-04-17T06:16:09.316Z,0.51
2024-04-17T06:17:09.367Z,0.52
2024-04-17T06:18:09.419Z,0.51
2024-04-17T06:19:09.633Z,0.51
2024-04-17T06:20:09.649Z,0.52
2024-04-17T06:21:09.723Z,0.51
2024-04-17T06:22:09.795Z,0.53
2024-04-17T06:23:09.893Z,0.51
2024-04-17T06:24:10.015Z,0.50
2024-04-17T06:25:10.071Z,0.51
2024-04-17T06:26:10.144Z,0.50
2024-04-17T06:27:10.207Z,0.50
2024-04-17T06:28:10.279Z,0.51
2024-04-17T06:29:10.342Z,0.52
2024-04-17T06:30:11.944Z,0.53
2024-04-17T06:31:10.629Z,0.52
2024-04-17T06:32:10.769Z,0.55
2024-04-17T06:33:10.769Z,0.58
2024-04-17T06:34:10.727Z,0.62
2024-04-17T06:35:10.769Z,0.61
2024-04-17T06:36:10.793Z,0.64
2024-04-17T06:37:10.832Z,0.68
2024-04-17T06:38:10.898Z,0.69
2024-04-17T06:39:10.915Z,0.65
2024-04-17T06:40:10.954Z,0.68
2024-04-17T06:41:13.789Z,0.66
2024-04-17T06:42:11.023Z,0.71
2024-04-17T06:43:11.041Z,0.70
2024-04-17T06:44:11.027Z,0.72
2024-04-17T06:45:11.488Z,0.74
2024-04-17T06:46:11.034Z,0.74
2024-04-17T06:47:11.187Z,0.76
2024-04-17T06:48:11.100Z,0.76
2024-04-17T06:49:11.013Z,0.77
2024-04-17T06:50:11.138Z,0.79
2024-04-17T06:51:11.366Z,0.78
2024-04-17T06:52:11.016Z,0.76
2024-04-17T06:53:11.054Z,0.76
2024-04-17T06:54:11.025Z,0.78
2024-04-17T06:55:11.157Z,0.78
2024-04-17T06:56:11.057Z,0.81
2024-04-17T06:57:11.065Z,0.81
2024-04-17T06:58:11.093Z,0.82
2024-04-17T06:59:11.039Z,0.84
2024-04-17T07:00:11.066Z,0.86
2024-04-17T07:01:11.090Z,0.84
2024-04-17T07:02:11.237Z,0.86
2024-04-17T07:03:11.184Z,0.86
2024-04-17T07:04:11.123Z,0.87
2024-04-17T07:05:11.090Z,0.87
2024-04-17T07:06:11.092Z,0.91
2024-04-17T07:07:11.060Z,0.89
2024-04-17T07:08:11.501Z,0.90
2024-04-17T07:09:11.054Z,0.92
2024-04-17T07:10:11.041Z,0.91
2024-04-17T07:11:11.178Z,0.90
2024-04-17T07:12:11.118Z,0.92
2024-04-17T07:13:11.513Z,0.94
2024-04-17T07:14:11.096Z,0.95
2024-04-17T07:15:11.071Z,0.96
2024-04-17T07:16:11.100Z,0.96
2024-04-17T07:17:11.078Z,1.00
2024-04-17T07:18:11.156Z,1.00
2024-04-17T07:19:11.546Z,1.06
2024-04-17T07:20:11.108Z,1.06
2024-04-17T07:21:11.107Z,1.07
2024-04-17T07:22:11.126Z,1.05
2024-04-17T07:23:11.075Z,1.08
2024-04-17T07:24:11.102Z,1.10
2024-04-17T07:25:13.133Z,1.12
2024-04-17T07:26:11.100Z,1.14
2024-04-17T07:27:11.148Z,1.12
2024-04-17T07:28:11.139Z,1.15
2024-04-17T07:29:11.120Z,1.13
2024-04-17T07:30:11.524Z,1.12
2024-04-17T07:31:11.130Z,1.13
2024-04-17T07:32:11.390Z,1.14
2024-04-17T07:33:11.173Z,1.15
2024-04-17T07:34:11.135Z,1.15
2024-04-17T07:35:11.274Z,1.15
2024-04-17T07:36:11.148Z,1.14
2024-04-17T07:37:11.137Z,1.12
2024-04-17T07:38:11.172Z,1.13
2024-04-17T07:39:11.240Z,1.14
2024-04-17T07:40:11.133Z,1.13
2024-04-17T07:41:11.150Z,1.15
2024-04-17T07:42:11.133Z,1.10
2024-04-17T07:43:11.157Z,1.13
2024-04-17T07:44:11.218Z,1.10
2024-04-17T07:45:11.137Z,1.12
2024-04-17T07:46:11.291Z,1.11
2024-04-17T07:47:11.198Z,1.10
2024-04-17T07:48:11.218Z,1.10
2024-04-17T07:49:11.146Z,1.06
2024-04-17T07:50:11.302Z,1.04
2024-04-17T07:51:11.176Z,1.03
2024-04-17T07:52:11.172Z,1.05
2024-04-17T07:53:11.180Z,1.10
2024-04-17T07:54:11.170Z,1.17
2024-04-17T07:55:11.149Z,1.23
2024-04-17T07:56:11.312Z,1.33
2024-04-17T07:57:11.152Z,1.39
2024-04-17T07:58:11.202Z,1.48
2024-04-17T07:59:11.167Z,1.51
2024-04-17T08:00:11.295Z,1.59
2024-04-17T08:01:11.274Z,1.65
2024-04-17T08:02:11.317Z,1.81
2024-04-17T08:03:11.179Z,1.93
2024-04-17T08:04:11.289Z,2.10
2024-04-17T08:05:11.181Z,2.23
2024-04-17T08:06:11.194Z,2.47
2024-04-17T08:07:11.200Z,2.93
2024-04-17T08:08:11.184Z,3.19
2024-04-17T08:09:11.230Z,3.47
2024-04-17T08:10:11.475Z,3.69
2024-04-17T08:11:11.615Z,3.97
2024-04-17T08:12:11.576Z,4.17
2024-04-17T08:13:11.820Z,4.62
2024-04-17T08:14:11.767Z,4.78
2024-04-17T08:15:12.025Z,5.19
2024-04-17T08:16:12.086Z,5.18
2024-04-17T08:17:12.202Z,5.42
2024-04-17T08:18:12.408Z,5.47
2024-04-17T08:19:12.350Z,5.71
2024-04-17T08:20:12.630Z,5.99
2024-04-17T08:21:12.549Z,5.92
2024-04-17T08:22:12.727Z,5.94
2024-04-17T08:23:12.812Z,5.99
2024-04-17T08:24:12.932Z,6.01
2024-04-17T08:25:13.036Z,6.18
2024-04-17T08:26:13.343Z,6.19
2024-04-17T08:27:13.259Z,6.38
2024-04-17T08:28:13.434Z,6.41
2024-04-17T08:29:13.476Z,6.36
2024-04-17T08:30:13.595Z,6.52
2024-04-17T08:31:13.692Z,6.25
2024-04-17T08:32:13.826Z,6.05
2024-04-17T08:33:14.018Z,5.84
2024-04-17T08:34:14.109Z,5.93
2024-04-17T08:35:14.277Z,5.97
2024-04-17T08:36:14.284Z,5.90
2024-04-17T08:37:14.392Z,5.77
2024-04-17T08:38:14.536Z,6.06
2024-04-17T08:39:14.652Z,5.75
2024-04-17T08:40:14.761Z,5.89
2024-04-17T08:41:15.087Z,5.63
2024-04-17T08:42:15.034Z,5.65
2024-04-17T08:43:15.059Z,5.69
2024-04-17T08:44:15.212Z,5.65
2024-04-17T08:45:15.264Z,5.38
2024-04-17T08:46:15.529Z,5.42
2024-04-17T08:47:15.625Z,5.51
2024-04-17T08:48:15.689Z,5.38
2024-04-17T08:49:15.679Z,5.31
2024-04-17T08:50:15.817Z,5.21
2024-04-17T08:51:15.932Z,5.18
2024-04-17T08:52:16.016Z,5.07
2024-04-17T08:53:16.145Z,4.73
2024-04-17T08:54:16.230Z,4.62
2024-04-17T08:55:16.374Z,4.23
2024-04-17T08:56:16.462Z,3.95
2024-04-17T08:57:16.590Z,3.68
2024-04-17T08:58:16.704Z,3.33
2024-04-17T08:59:16.813Z,3.03
2024-04-17T09:00:16.904Z,2.90
2024-04-17T09:01:17.063Z,2.56
2024-04-17T09:02:17.250Z,2.45
2024-04-17T09:03:17.361Z,2.26
2024-04-17T09:04:24.946Z,0.50
2024-04-17T09:05:24.897Z,0.50
2024-04-17T09:06:24.882Z,0.50
2024-04-17T09:07:24.977Z,0.50
2024-04-17T09:08:24.901Z,0.50
2024-04-17T09:09:24.919Z,0.50
2024-04-17T09:10:24.932Z,0.50
2024-04-17T09:11:24.984Z,0.50
2024-04-17T09:12:24.924Z,0.51
2024-04-17T09:13:25.045Z,0.50
2024-04-17T09:14:24.928Z,0.50
2024-04-17T09:15:24.908Z,0.50
2024-04-17T09:16:24.960Z,0.50
2024-04-17T09:17:28.932Z,0.50
2024-04-17T09:18:26.064Z,0.49
2024-04-17T09:19:24.929Z,0.46
2024-04-17T09:20:24.928Z,0.45
2024-04-17T09:21:24.940Z,0.44
2024-04-17T09:22:25.394Z,0.43
2024-04-17T09:23:24.897Z,0.52
2024-04-17T09:24:24.921Z,0.51
2024-04-17T09:25:24.958Z,0.53
2024-04-17T09:26:24.936Z,0.55
2024-04-17T09:27:24.959Z,0.56
2024-04-17T09:28:24.999Z,0.56
2024-04-17T09:29:24.950Z,0.60
2024-04-17T09:30:24.923Z,0.62
2024-04-17T09:31:24.981Z,0.66
2024-04-17T09:32:25.222Z,0.74
2024-04-17T09:33:25.135Z,0.82
2024-04-17T09:34:25.219Z,0.88
2024-04-17T09:35:25.344Z,0.96
2024-04-17T09:36:25.459Z,1.04
2024-04-17T09:37:25.572Z,1.12
2024-04-17T09:38:25.704Z,1.20
2024-04-17T09:39:25.827Z,1.25
2024-04-17T09:40:25.956Z,1.34
2024-04-17T09:41:26.107Z,1.43
2024-04-17T09:42:26.233Z,1.47
2024-04-17T09:43:29.429Z,1.52
2024-04-17T09:44:26.324Z,1.52
2024-04-17T09:45:26.325Z,1.53
2024-04-17T09:46:26.409Z,1.56
2024-04-17T09:47:26.341Z,1.62
2024-04-17T09:48:26.351Z,1.73
2024-04-17T09:49:26.390Z,1.79
2024-04-17T09:50:26.367Z,1.76
2024-04-17T09:51:26.399Z,1.75
2024-04-17T09:52:26.364Z,1.80
2024-04-17T09:53:31.939Z,1.80
2024-04-17T09:54:27.374Z,1.80
2024-04-17T09:55:26.430Z,1.77
2024-04-17T09:56:26.402Z,1.77
2024-04-17T09:57:26.698Z,1.74
2024-04-17T09:58:26.403Z,1.76
2024-04-17T09:59:26.385Z,1.81
2024-04-17T10:00:26.402Z,1.82
2024-04-17T10:01:26.389Z,1.77
2024-04-17T10:02:26.515Z,1.83
2024-04-17T10:03:26.588Z,1.76
2024-04-17T10:04:26.726Z,1.75
2024-04-17T10:05:26.825Z,1.76
2024-04-17T10:06:26.949Z,1.75
2024-04-17T10:07:27.299Z,1.75
2024-04-17T10:08:27.206Z,1.77
2024-04-17T10:09:27.353Z,1.70
2024-04-17T10:10:27.452Z,1.67
2024-04-17T10:11:27.586Z,1.59
2024-04-17T10:12:27.677Z,1.56
2024-04-17T10:13:27.807Z,1.50
2024-04-17T10:14:27.879Z,1.45
2024-04-17T10:15:28.018Z,1.42
2024-04-17T10:16:28.199Z,1.37
2024-04-17T10:17:36.007Z,1.35
2024-04-17T10:18:29.608Z,1.35
2024-04-17T10:19:28.301Z,1.35
2024-04-17T10:20:28.321Z,1.32
2024-04-17T10:21:28.292Z,1.33
2024-04-17T10:22:28.328Z,1.30
2024-04-17T10:23:28.347Z,1.29
2024-04-17T10:24:28.308Z,1.27
2024-04-17T10:25:35.922Z,1.26
2024-04-17T10:26:29.362Z,1.26
2024-04-17T10:27:28.324Z,1.22
2024-04-17T10:28:28.425Z,1.19
2024-04-17T10:29:28.766Z,1.14
2024-04-17T10:30:28.495Z,1.14
2024-04-17T10:31:28.599Z,1.11
2024-04-17T10:32:28.780Z,1.12
2024-04-17T10:33:29.086Z,1.12
2024-04-17T10:34:28.981Z,1.11
2024-04-17T10:35:29.065Z,1.13
2024-04-17T10:36:29.195Z,1.09
2024-04-17T10:37:29.353Z,1.07
2024-04-17T10:38:33.047Z,1.05
2024-04-17T10:39:30.431Z,1.04
2024-04-17T10:40:29.461Z,1.03
2024-04-17T10:41:29.445Z,1.00
2024-04-17T10:42:29.443Z,0.98
2024-04-17T10:43:30.696Z,0.97
2024-04-17T10:44:29.483Z,0.98
2024-04-17T10:45:29.459Z,0.96
2024-04-17T10:46:29.468Z,0.94
2024-04-17T10:47:29.584Z,0.94
2024-04-17T10:48:29.652Z,0.93
2024-04-17T10:49:29.676Z,0.92
2024-04-17T10:50:29.814Z,0.91
2024-04-17T10:51:29.921Z,0.91
2024-04-17T10:52:30.073Z,0.88
2024-04-17T10:53:30.203Z,0.86
2024-04-17T10:54:30.255Z,0.87
2024-04-17T10:55:30.426Z,0.88
2024-04-17T10:56:30.506Z,0.87
2024-04-17T10:57:30.649Z,0.86
2024-04-17T10:58:30.749Z,0.85
2024-04-17T10:59:30.882Z,0.87
2024-04-17T11:00:30.983Z,0.85
2024-04-17T11:01:31.129Z,0.83
2024-04-17T11:02:31.194Z,0.83
2024-04-17T11:03:31.459Z,0.82
2024-04-17T11:04:31.450Z,0.81
2024-04-17T11:05:31.526Z,0.82
2024-04-17T11:06:31.676Z,0.82
2024-04-17T11:07:31.815Z,0.79
2024-04-17T11:08:31.909Z,0.82
2024-04-17T11:09:31.999Z,0.88
2024-04-17T11:10:32.153Z,0.97
2024-04-17T11:11:32.411Z,0.99
2024-04-17T11:12:32.346Z,1.01
2024-04-17T11:13:32.505Z,1.03
2024-04-17T11:14:32.551Z,1.04
2024-04-17T11:15:32.700Z,1.00
2024-04-17T11:16:32.898Z,1.00
2024-04-17T11:17:33.047Z,0.97
2024-04-17T11:18:33.149Z,0.93
2024-04-17T11:19:33.166Z,0.89
2024-04-17T11:20:33.305Z,0.84
2024-04-17T11:21:33.432Z,0.83
2024-04-17T11:22:33.542Z,0.82
2024-04-17T11:23:35.791Z,0.83
2024-04-17T11:24:33.698Z,0.83
2024-04-17T11:25:33.676Z,0.82
2024-04-17T11:26:33.644Z,0.82
2024-04-17T11:27:33.635Z,0.82
2024-04-17T11:28:33.680Z,0.81
2024-04-17T11:29:40.215Z,0.78
2024-04-17T11:30:34.682Z,0.78
2024-04-17T11:31:33.678Z,0.79
2024-04-17T11:32:33.723Z,0.79
2024-04-17T11:33:33.702Z,0.78
2024-04-17T11:34:33.722Z,0.77
2024-04-17T11:35:33.694Z,0.78
2024-04-17T11:36:33.708Z,0.78
2024-04-17T11:37:33.676Z,0.79
2024-04-17T11:38:33.670Z,0.78
2024-04-17T11:39:36.797Z,0.76
2024-04-17T11:40:33.850Z,0.77
2024-04-17T11:41:33.792Z,0.76
2024-04-17T11:42:33.832Z,0.76
2024-04-17T11:43:33.835Z,0.77
2024-04-17T11:44:33.804Z,0.77
2024-04-17T11:45:33.792Z,0.78
2024-04-17T11:46:33.839Z,0.77
2024-04-17T11:47:33.833Z,0.78
2024-04-17T11:48:33.956Z,0.77
2024-04-17T11:49:33.865Z,0.79
2024-04-17T11:50:35.414Z,0.79
2024-04-17T11:51:33.957Z,0.77
2024-04-17T11:52:33.828Z,0.77
2024-04-17T11:53:33.843Z,0.75
2024-04-17T11:54:33.817Z,0.76
2024-04-17T11:55:33.864Z,0.73
2024-04-17T11:56:33.824Z,0.72
2024-04-17T11:57:33.868Z,0.74
2024-04-17T11:58:33.946Z,0.76
2024-04-17T11:59:34.032Z,0.76
2024-04-17T12:00:34.222Z,0.79
2024-04-17T12:01:34.267Z,0.79
2024-04-17T12:02:34.380Z,0.82
2024-04-17T12:03:38.030Z,0.87
2024-04-17T12:04:34.715Z,0.87
2024-04-17T12:05:34.527Z,0.88
2024-04-17T12:06:35.667Z,0.89
2024-04-17T12:07:34.527Z,0.88
2024-04-17T12:08:34.538Z,0.83
2024-04-17T12:09:34.515Z,0.75
2024-04-17T12:10:34.548Z,0.70
2024-04-17T12:11:34.570Z,0.66
2024-04-17T12:12:34.571Z,0.61
2024-04-17T12:13:34.552Z,0.60
2024-04-17T12:14:34.522Z,0.57
2024-04-17T12:15:34.524Z,0.55
2024-04-17T12:16:34.626Z,0.53
2024-04-17T12:17:34.540Z,0.53
2024-04-17T12:18:34.538Z,0.51
2024-04-17T12:19:34.585Z,0.51
2024-04-17T12:20:34.541Z,0.50
2024-04-17T12:21:34.542Z,0.52
2024-04-17T12:22:34.702Z,0.51
2024-04-17T12:23:34.832Z,0.51
2024-04-17T12:24:34.930Z,0.51
2024-04-17T12:25:35.062Z,0.50
2024-04-17T12:26:35.183Z,0.52
2024-04-17T12:27:35.296Z,0.50
2024-04-17T12:28:35.497Z,0.50
2024-04-17T12:29:35.514Z,0.50
2024-04-17T12:30:35.621Z,0.50
2024-04-17T12:31:35.761Z,0.51
2024-04-17T12:32:36.050Z,0.51
2024-04-17T12:33:35.998Z,0.52
2024-04-17T12:34:36.159Z,0.50
2024-04-17T12:35:36.240Z,0.50
2024-04-17T12:36:36.353Z,0.51
2024-04-17T12:37:36.465Z,0.51
2024-04-17T12:38:36.595Z,0.50
2024-04-17T12:39:36.682Z,0.51
2024-04-17T12:40:36.872Z,0.51
2024-04-17T12:41:36.951Z,0.51
2024-04-17T12:42:37.268Z,0.50
2024-04-17T12:43:37.215Z,0.51
2024-04-17T12:45:42.292Z,0.50
2024-04-17T12:46:42.350Z,0.50
2024-04-17T12:47:42.316Z,0.50
2024-04-17T12:48:42.292Z,0.50
2024-04-17T12:49:42.295Z,0.50
2024-04-17T12:50:42.264Z,0.51
2024-04-17T12:51:42.304Z,0.51
2024-04-17T12:52:42.300Z,0.51
2024-04-17T12:53:42.344Z,0.52
2024-04-17T12:54:42.271Z,0.51
2024-04-17T12:55:42.353Z,0.50
2024-04-17T12:56:42.312Z,0.50
2024-04-17T12:57:42.307Z,0.51
2024-04-17T12:58:42.331Z,0.50
2024-04-17T12:59:42.320Z,0.51
2024-04-17T13:00:42.329Z,0.51
2024-04-17T13:01:42.351Z,0.50
2024-04-17T13:02:42.424Z,0.51
2024-04-17T13:03:42.399Z,0.51
2024-04-17T13:04:42.348Z,0.50
2024-04-17T13:05:42.335Z,0.52
2024-04-17T13:06:42.355Z,0.51
2024-04-17T13:07:42.334Z,0.51
2024-04-17T13:08:42.312Z,0.51
2024-04-17T13:09:42.347Z,0.51
2024-04-17T13:10:42.343Z,0.50
2024-04-17T13:11:42.343Z,0.50
2024-04-17T13:12:42.345Z,0.50
2024-04-17T13:13:42.357Z,0.53
2024-04-17T13:14:42.357Z,0.58
2024-04-17T13:15:42.382Z,0.64
2024-04-17T13:16:42.515Z,0.71
2024-04-17T13:17:42.768Z,0.76
2024-04-17T13:18:42.762Z,0.76
2024-04-17T13:19:44.821Z,0.80
2024-04-17T13:20:42.690Z,0.86
2024-04-17T13:21:42.697Z,0.92
2024-04-17T13:22:42.765Z,0.96
2024-04-17T13:23:42.768Z,0.95
2024-04-17T13:24:42.834Z,0.97
2024-04-17T13:25:42.750Z,1.04
2024-04-17T13:26:42.766Z,1.06
2024-04-17T13:27:42.694Z,1.11
2024-04-17T13:28:42.733Z,1.18
2024-04-17T13:29:43.058Z,1.21
2024-04-17T13:30:42.717Z,1.21
2024-04-17T13:31:42.709Z,1.26
2024-04-17T13:32:42.747Z,1.27
2024-04-17T13:33:42.749Z,1.30
2024-04-17T13:34:42.828Z,1.33
2024-04-17T13:35:42.724Z,1.35
2024-04-17T13:36:42.706Z,1.37
2024-04-17T13:37:42.715Z,1.39
2024-04-17T13:38:42.794Z,1.44
2024-04-17T13:39:42.700Z,1.51
2024-04-17T13:40:42.766Z,1.50
2024-04-17T13:41:42.709Z,1.52
2024-04-17T13:42:42.730Z,1.51
2024-04-17T13:43:42.767Z,1.51
2024-04-17T13:44:42.730Z,1.50
2024-04-17T13:45:42.716Z,1.50
2024-04-17T13:46:42.726Z,1.52
2024-04-17T13:47:42.871Z,1.50
2024-04-17T13:48:42.884Z,1.46
2024-04-17T13:49:42.806Z,1.48
2024-04-17T13:50:42.748Z,1.49
2024-04-17T13:51:42.729Z,1.49
2024-04-17T13:52:42.760Z,1.47
2024-04-17T13:53:42.743Z,1.47
2024-04-17T13:54:42.716Z,1.47
2024-04-17T13:55:42.715Z,1.47
2024-04-17T13:56:42.821Z,1.49
2024-04-17T13:57:43.099Z,1.50
2024-04-17T13:58:43.862Z,1.49
2024-04-17T13:59:43.039Z,1.50
2024-04-17T14:00:43.174Z,1.48
2024-04-17T14:01:43.344Z,1.50
2024-04-17T14:02:43.534Z,1.49
2024-04-17T14:03:43.732Z,1.55
2024-04-17T14:04:43.789Z,1.57
2024-04-17T14:05:43.954Z,1.66
2024-04-17T14:06:44.181Z,1.67
2024-04-17T14:07:44.264Z,1.72
2024-04-17T14:08:44.414Z,1.78
2024-04-17T14:09:44.574Z,1.84
2024-04-17T14:10:44.742Z,1.90
2024-04-17T14:11:44.937Z,1.91
2024-04-17T14:12:45.072Z,2.03
2024-04-17T14:13:45.216Z,2.07
2024-04-17T14:14:45.385Z,2.18
2024-04-17T14:15:45.564Z,2.23
2024-04-17T14:16:45.678Z,2.34
2024-04-17T14:17:45.827Z,2.37
2024-04-17T14:18:45.869Z,2.41
2024-04-17T14:19:45.915Z,2.44
2024-04-17T14:20:46.022Z,2.51
2024-04-17T14:21:46.090Z,2.52
2024-04-17T14:22:46.253Z,2.54
2024-04-17T14:23:46.360Z,2.61
2024-04-17T14:24:46.488Z,2.62
2024-04-17T14:25:46.498Z,2.69
2024-04-17T14:26:46.577Z,2.80
2024-04-17T14:27:46.684Z,2.85
2024-04-17T14:28:46.825Z,2.96
2024-04-17T14:29:47.055Z,2.94
2024-04-17T14:30:47.113Z,2.95
2024-04-17T14:31:47.256Z,2.96
2024-04-17T14:32:47.440Z,3.05
2024-04-17T14:33:47.591Z,3.08
2024-04-17T14:34:47.700Z,3.03
2024-04-17T14:35:47.888Z,3.15
2024-04-17T14:36:48.037Z,3.14
2024-04-17T14:37:48.146Z,3.25
2024-04-17T14:38:48.330Z,3.20
2024-04-17T14:39:48.431Z,3.20
2024-04-17T14:40:48.592Z,3.24
2024-04-17T14:41:48.757Z,3.32
2024-04-17T14:42:48.932Z,3.29
2024-04-17T14:43:49.043Z,3.19
2024-04-17T14:44:49.171Z,3.14
2024-04-17T14:45:49.387Z,2.97
2024-04-17T14:46:49.651Z,2.92
2024-04-17T14:47:49.568Z,2.81
2024-04-17T14:48:49.626Z,2.83
2024-04-17T14:49:49.738Z,2.83
2024-04-17T14:50:49.834Z,2.82
2024-04-17T14:51:50.083Z,2.87
2024-04-17T14:52:50.043Z,2.87
2024-04-17T14:53:50.117Z,2.97
2024-04-17T14:54:50.166Z,2.98
2024-04-17T14:55:50.239Z,3.00
2024-04-17T14:56:50.329Z,3.11
2024-04-17T14:57:50.456Z,3.06
2024-04-17T14:58:50.564Z,3.20
2024-04-17T14:59:50.703Z,3.22
2024-04-17T15:00:50.883Z,3.21
2024-04-17T15:01:51.015Z,3.27
2024-04-17T15:02:51.168Z,3.22
2024-04-17T15:03:51.237Z,3.33
2024-04-17T15:04:51.171Z,3.33
2024-04-17T15:05:51.244Z,3.12
2024-04-17T15:06:51.421Z,3.02
2024-04-17T15:07:51.536Z,2.87
2024-04-17T15:08:51.699Z,2.91
2024-04-17T15:09:51.830Z,3.14
2024-04-17T15:10:51.969Z,3.37
2024-04-17T15:11:52.075Z,3.61
2024-04-17T15:12:52.639Z,3.85
2024-04-17T15:13:52.236Z,4.03
2024-04-17T15:14:52.318Z,3.96
2024-04-17T15:15:52.407Z,3.98
2024-04-17T15:16:52.477Z,3.99
2024-04-17T15:17:52.565Z,4.11
2024-04-17T15:18:52.681Z,4.11
2024-04-17T15:19:52.781Z,4.19
2024-04-17T15:20:52.911Z,4.23
2024-04-17T15:21:53.004Z,4.28
2024-04-17T15:22:53.072Z,4.35
2024-04-17T15:23:53.165Z,4.40
2024-04-17T15:24:53.262Z,4.34
2024-04-17T15:25:53.601Z,4.32
2024-04-17T15:26:53.435Z,4.16
2024-04-17T15:27:53.620Z,4.20
2024-04-17T15:28:53.621Z,4.10
2024-04-17T15:29:53.716Z,4.08
2024-04-17T15:30:53.798Z,4.11
2024-04-17T15:31:53.924Z,4.05
2024-04-17T15:32:54.020Z,3.99
2024-04-17T15:33:54.131Z,4.06
2024-04-17T15:34:54.184Z,3.99
2024-04-17T15:35:54.311Z,3.98
2024-04-17T15:36:54.408Z,3.92
2024-04-17T15:37:54.457Z,3.95
2024-04-17T15:38:54.551Z,3.91
2024-04-17T15:39:54.668Z,3.88
2024-04-17T15:40:54.750Z,3.83
2024-04-17T15:41:54.901Z,3.86
2024-04-17T15:42:54.969Z,3.88
2024-04-17T15:43:55.085Z,3.86
2024-04-17T15:44:55.193Z,3.88
2024-04-17T15:45:55.214Z,3.85
2024-04-17T15:46:55.367Z,3.83
2024-04-17T15:47:55.593Z,3.82
2024-04-17T15:48:55.706Z,3.81
2024-04-17T15:49:55.662Z,3.76
2024-04-17T15:50:55.894Z,3.85
2024-04-17T15:51:55.997Z,3.79
2024-04-17T15:52:56.097Z,3.69
2024-04-17T15:53:56.760Z,3.80
2024-04-17T15:54:56.091Z,3.74
2024-04-17T15:55:56.267Z,3.76
2024-04-17T15:56:56.356Z,3.75
2024-04-17T15:57:56.445Z,3.77
2024-04-17T15:58:56.532Z,3.78
2024-04-17T15:59:56.598Z,3.74
2024-04-17T16:00:56.852Z,3.71
2024-04-17T16:01:56.837Z,3.75
2024-04-17T16:02:57.063Z,3.73
2024-04-17T16:03:57.127Z,3.82
2024-04-17T16:04:57.109Z,3.72
2024-04-17T16:05:57.201Z,3.77
2024-04-17T16:06:57.290Z,3.76
2024-04-17T16:07:58.211Z,3.68
2024-04-17T16:08:57.550Z,3.69
2024-04-17T16:09:57.602Z,3.74
2024-04-17T16:10:59.369Z,3.67
2024-04-17T16:11:57.713Z,3.62
2024-04-17T16:12:57.702Z,3.60
2024-04-17T16:13:57.866Z,3.70
2024-04-17T16:14:57.793Z,3.67
2024-04-17T16:15:57.787Z,3.62
2024-04-17T16:16:59.202Z,3.64
2024-04-17T16:17:58.051Z,3.58
2024-04-17T16:18:57.970Z,3.61
2024-04-17T16:19:57.907Z,3.55
2024-04-17T16:20:58.013Z,3.50
2024-04-17T16:21:57.963Z,3.62
2024-04-17T16:22:57.995Z,3.45
2024-04-17T16:23:58.019Z,3.49
2024-04-17T16:24:57.958Z,3.48
2024-04-17T16:25:59.775Z,3.46
2024-04-17T16:26:57.987Z,3.52
2024-04-17T16:27:58.040Z,3.51
2024-04-17T16:28:57.969Z,3.44
2024-04-17T16:29:57.966Z,3.37
2024-04-17T16:30:58.858Z,3.38
2024-04-17T16:31:58.103Z,3.40
2024-04-17T16:32:58.079Z,3.44
2024-04-17T16:33:58.094Z,3.30
2024-04-17T16:34:57.985Z,3.41
2024-04-17T16:35:58.748Z,3.37
2024-04-17T16:36:58.171Z,3.30
2024-04-17T16:37:58.369Z,3.28
2024-04-17T16:38:58.457Z,3.32
2024-04-17T16:39:58.556Z,3.27
2024-04-17T16:40:58.769Z,3.26
2024-04-17T16:41:58.733Z,3.28
2024-04-17T16:42:58.762Z,3.27
2024-04-17T16:43:59.022Z,3.26
2024-04-17T16:44:58.974Z,3.21
2024-04-17T16:45:59.060Z,3.22
2024-04-17T16:46:59.158Z,3.18
2024-04-17T16:47:59.364Z,3.21
2024-04-17T16:49:01.239Z,3.11
2024-04-17T16:49:59.409Z,3.17
2024-04-17T16:50:59.424Z,3.15
2024-04-17T16:51:59.381Z,3.06
2024-04-17T16:52:59.361Z,3.09
2024-04-17T16:53:59.364Z,3.07
2024-04-17T16:54:59.376Z,3.10
2024-04-17T16:55:59.347Z,3.08
2024-04-17T16:56:59.328Z,3.05
2024-04-17T16:57:59.351Z,3.03
2024-04-17T16:58:59.372Z,3.00
2024-04-17T16:59:59.380Z,3.03
2024-04-17T17:00:59.397Z,2.98
